sensor_id;sensor_type;location;lat;lon;timestamp;temperature;humidity
75296;DHT22;64623;44.738;37.804;2023-04-30T00:00:54;21.35;84.71
75296;DHT22;64623;44.738;37.804;2023-04-30T00:01:57;21.36;84.74
75296;DHT22;64623;44.738;37.804;2023-04-30T00:03:00;21.36;84.75
75296;DHT22;64623;44.738;37.804;2023-04-30T00:04:03;21.35;84.66
75296;DHT22;64623;44.738;37.804;2023-04-30T00:05:06;21.35;84.75
75296;DHT22;64623;44.738;37.804;2023-04-30T00:06:09;21.35;84.74
75296;DHT22;64623;44.738;37.804;2023-04-30T00:07:13;21.35;84.72
75296;DHT22;64623;44.738;37.804;2023-04-30T00:08:16;21.35;84.71
75296;DHT22;64623;44.738;37.804;2023-04-30T00:09:19;21.34;84.72
75296;DHT22;64623;44.738;37.804;2023-04-30T00:10:22;21.35;84.77
75296;DHT22;64623;44.738;37.804;2023-04-30T00:11:25;21.35;84.74
75296;DHT22;64623;44.738;37.804;2023-04-30T00:12:27;21.36;84.67
75296;DHT22;64623;44.738;37.804;2023-04-30T00:13:30;21.36;84.98
75296;DHT22;64623;44.738;37.804;2023-04-30T00:14:34;21.36;85.29
75296;DHT22;64623;44.738;37.804;2023-04-30T00:15:36;21.36;85.38
75296;DHT22;64623;44.738;37.804;2023-04-30T00:16:40;21.36;85.43
75296;DHT22;64623;44.738;37.804;2023-04-30T00:17:43;21.36;85.19
75296;DHT22;64623;44.738;37.804;2023-04-30T00:18:46;21.36;85.10
75296;DHT22;64623;44.738;37.804;2023-04-30T00:19:49;21.36;85.12
75296;DHT22;64623;44.738;37.804;2023-04-30T00:20:52;21.36;85.19
75296;DHT22;64623;44.738;37.804;2023-04-30T00:21:55;21.36;85.18
75296;DHT22;64623;44.738;37.804;2023-04-30T00:22:58;21.36;85.17
75296;DHT22;64623;44.738;37.804;2023-04-30T00:24:01;21.36;85.20
75296;DHT22;64623;44.738;37.804;2023-04-30T00:25:05;21.35;85.19
75296;DHT22;64623;44.738;37.804;2023-04-30T00:26:08;21.35;85.24
75296;DHT22;64623;44.738;37.804;2023-04-30T00:27:11;21.37;85.26
75296;DHT22;64623;44.738;37.804;2023-04-30T00:28:14;21.36;85.30
75296;DHT22;64623;44.738;37.804;2023-04-30T00:29:17;21.35;85.32
75296;DHT22;64623;44.738;37.804;2023-04-30T00:30:20;21.35;85.42
75296;DHT22;64623;44.738;37.804;2023-04-30T00:31:23;21.35;85.42
75296;DHT22;64623;44.738;37.804;2023-04-30T00:32:26;21.36;85.44
75296;DHT22;64623;44.738;37.804;2023-04-30T00:33:29;21.35;85.43
75296;DHT22;64623;44.738;37.804;2023-04-30T00:34:33;21.36;85.45
75296;DHT22;64623;44.738;37.804;2023-04-30T00:35:36;21.35;85.45
75296;DHT22;64623;44.738;37.804;2023-04-30T00:36:39;21.36;85.45
75296;DHT22;64623;44.738;37.804;2023-04-30T00:37:43;21.36;85.48
75296;DHT22;64623;44.738;37.804;2023-04-30T00:38:46;21.35;85.45
75296;DHT22;64623;44.738;37.804;2023-04-30T00:39:50;21.35;85.49
75296;DHT22;64623;44.738;37.804;2023-04-30T00:40:53;21.35;85.42
75296;DHT22;64623;44.738;37.804;2023-04-30T00:41:56;21.36;85.35
75296;DHT22;64623;44.738;37.804;2023-04-30T00:42:59;21.36;85.30
75296;DHT22;64623;44.738;37.804;2023-04-30T00:44:02;21.36;85.24
75296;DHT22;64623;44.738;37.804;2023-04-30T00:45:05;21.34;85.26
75296;DHT22;64623;44.738;37.804;2023-04-30T00:46:08;21.35;85.26
75296;DHT22;64623;44.738;37.804;2023-04-30T00:47:12;21.35;85.27
75296;DHT22;64623;44.738;37.804;2023-04-30T00:48:15;21.35;85.35
75296;DHT22;64623;44.738;37.804;2023-04-30T00:49:18;21.35;85.30
75296;DHT22;64623;44.738;37.804;2023-04-30T00:50:21;21.35;85.27
75296;DHT22;64623;44.738;37.804;2023-04-30T00:51:25;21.35;85.19
75296;DHT22;64623;44.738;37.804;2023-04-30T00:52:28;21.35;85.21
75296;DHT22;64623;44.738;37.804;2023-04-30T00:53:32;21.35;85.25
75296;DHT22;64623;44.738;37.804;2023-04-30T00:54:36;21.35;85.18
75296;DHT22;64623;44.738;37.804;2023-04-30T00:55:40;21.35;85.18
75296;DHT22;64623;44.738;37.804;2023-04-30T00:56:43;21.35;85.22
75296;DHT22;64623;44.738;37.804;2023-04-30T00:57:47;21.35;85.22
75296;DHT22;64623;44.738;37.804;2023-04-30T00:58:51;21.34;85.26
75296;DHT22;64623;44.738;37.804;2023-04-30T00:59:58;21.33;85.20
75296;DHT22;64623;44.738;37.804;2023-04-30T01:01:05;21.35;85.13
75296;DHT22;64623;44.738;37.804;2023-04-30T01:02:08;21.34;85.19
75296;DHT22;64623;44.738;37.804;2023-04-30T01:03:12;21.35;85.13
75296;DHT22;64623;44.738;37.804;2023-04-30T01:04:16;21.35;85.21
75296;DHT22;64623;44.738;37.804;2023-04-30T01:05:20;21.36;85.27
75296;DHT22;64623;44.738;37.804;2023-04-30T01:06:24;21.34;85.28
75296;DHT22;64623;44.738;37.804;2023-04-30T01:07:29;21.35;85.21
75296;DHT22;64623;44.738;37.804;2023-04-30T01:08:33;21.35;85.22
75296;DHT22;64623;44.738;37.804;2023-04-30T01:09:36;21.34;85.21
75296;DHT22;64623;44.738;37.804;2023-04-30T01:12:32;21.34;85.22
75296;DHT22;64623;44.738;37.804;2023-04-30T01:13:52;21.34;85.28
75296;DHT22;64623;44.738;37.804;2023-04-30T01:19:41;21.33;85.26
75296;DHT22;64623;44.738;37.804;2023-04-30T01:20:52;21.33;85.26
75296;DHT22;64623;44.738;37.804;2023-04-30T01:21:58;21.33;85.26
75296;DHT22;64623;44.738;37.804;2023-04-30T01:24:36;21.33;85.28
75296;DHT22;64623;44.738;37.804;2023-04-30T01:28:26;21.31;85.36
75296;DHT22;64623;44.738;37.804;2023-04-30T01:29:31;21.31;85.38
75296;DHT22;64623;44.738;37.804;2023-04-30T01:30:37;21.31;85.44
75296;DHT22;64623;44.738;37.804;2023-04-30T01:31:42;21.33;85.38
75296;DHT22;64623;44.738;37.804;2023-04-30T01:32:45;21.31;85.35
75296;DHT22;64623;44.738;37.804;2023-04-30T01:33:49;21.32;85.40
75296;DHT22;64623;44.738;37.804;2023-04-30T01:34:52;21.31;85.35
75296;DHT22;64623;44.738;37.804;2023-04-30T01:40:43;21.31;85.42
75296;DHT22;64623;44.738;37.804;2023-04-30T01:41:57;21.31;85.51
75296;DHT22;64623;44.738;37.804;2023-04-30T01:43:37;21.31;85.49
75296;DHT22;64623;44.738;37.804;2023-04-30T01:45:17;21.29;85.48
75296;DHT22;64623;44.738;37.804;2023-04-30T01:46:23;21.29;85.51
75296;DHT22;64623;44.738;37.804;2023-04-30T01:47:40;21.29;85.51
75296;DHT22;64623;44.738;37.804;2023-04-30T01:49:12;21.30;85.51
75296;DHT22;64623;44.738;37.804;2023-04-30T01:50:52;21.28;85.60
75296;DHT22;64623;44.738;37.804;2023-04-30T01:52:11;21.29;85.64
75296;DHT22;64623;44.738;37.804;2023-04-30T01:53:42;21.29;85.61
75296;DHT22;64623;44.738;37.804;2023-04-30T01:54:56;21.30;85.71
75296;DHT22;64623;44.738;37.804;2023-04-30T01:56:05;21.30;85.69
75296;DHT22;64623;44.738;37.804;2023-04-30T01:57:20;21.29;85.72
75296;DHT22;64623;44.738;37.804;2023-04-30T01:58:24;21.30;85.62
75296;DHT22;64623;44.738;37.804;2023-04-30T01:59:29;21.30;85.70
75296;DHT22;64623;44.738;37.804;2023-04-30T02:00:32;21.30;85.71
75296;DHT22;64623;44.738;37.804;2023-04-30T02:01:35;21.29;85.64
75296;DHT22;64623;44.738;37.804;2023-04-30T02:02:39;21.28;85.68
75296;DHT22;64623;44.738;37.804;2023-04-30T02:03:42;21.29;85.76
75296;DHT22;64623;44.738;37.804;2023-04-30T02:04:45;21.29;85.73
75296;DHT22;64623;44.738;37.804;2023-04-30T02:05:49;21.29;85.71
75296;DHT22;64623;44.738;37.804;2023-04-30T02:06:52;21.30;85.69
75296;DHT22;64623;44.738;37.804;2023-04-30T02:07:55;21.29;85.67
75296;DHT22;64623;44.738;37.804;2023-04-30T02:08:58;21.31;85.70
75296;DHT22;64623;44.738;37.804;2023-04-30T02:10:07;21.31;85.66
75296;DHT22;64623;44.738;37.804;2023-04-30T02:11:10;21.29;85.69
75296;DHT22;64623;44.738;37.804;2023-04-30T02:12:13;21.30;85.64
75296;DHT22;64623;44.738;37.804;2023-04-30T02:13:16;21.29;85.68
75296;DHT22;64623;44.738;37.804;2023-04-30T02:14:19;21.30;85.72
75296;DHT22;64623;44.738;37.804;2023-04-30T02:15:47;21.29;85.74
75296;DHT22;64623;44.738;37.804;2023-04-30T02:16:50;21.30;85.71
75296;DHT22;64623;44.738;37.804;2023-04-30T02:17:53;21.31;85.74
75296;DHT22;64623;44.738;37.804;2023-04-30T02:18:56;21.31;85.71
75296;DHT22;64623;44.738;37.804;2023-04-30T02:19:59;21.30;85.72
75296;DHT22;64623;44.738;37.804;2023-04-30T02:21:02;21.29;85.71
75296;DHT22;64623;44.738;37.804;2023-04-30T02:22:05;21.30;85.67
75296;DHT22;64623;44.738;37.804;2023-04-30T02:23:10;21.31;85.67
75296;DHT22;64623;44.738;37.804;2023-04-30T02:24:13;21.31;85.64
75296;DHT22;64623;44.738;37.804;2023-04-30T02:25:16;21.30;85.65
75296;DHT22;64623;44.738;37.804;2023-04-30T02:26:19;21.30;85.64
75296;DHT22;64623;44.738;37.804;2023-04-30T02:27:24;21.30;85.65
75296;DHT22;64623;44.738;37.804;2023-04-30T02:28:28;21.29;85.64
75296;DHT22;64623;44.738;37.804;2023-04-30T02:29:31;21.30;85.62
75296;DHT22;64623;44.738;37.804;2023-04-30T02:30:34;21.31;85.59
75296;DHT22;64623;44.738;37.804;2023-04-30T02:31:37;21.31;85.62
75296;DHT22;64623;44.738;37.804;2023-04-30T02:32:44;21.31;85.55
75296;DHT22;64623;44.738;37.804;2023-04-30T02:33:48;21.32;85.62
75296;DHT22;64623;44.738;37.804;2023-04-30T02:34:51;21.31;85.56
75296;DHT22;64623;44.738;37.804;2023-04-30T02:35:54;21.32;85.60
75296;DHT22;64623;44.738;37.804;2023-04-30T02:36:57;21.31;85.56
75296;DHT22;64623;44.738;37.804;2023-04-30T02:38:00;21.31;85.52
75296;DHT22;64623;44.738;37.804;2023-04-30T02:39:03;21.31;85.54
75296;DHT22;64623;44.738;37.804;2023-04-30T02:40:06;21.31;85.55
75296;DHT22;64623;44.738;37.804;2023-04-30T02:41:10;21.31;85.58
75296;DHT22;64623;44.738;37.804;2023-04-30T02:42:14;21.32;85.61
75296;DHT22;64623;44.738;37.804;2023-04-30T02:43:17;21.32;85.58
75296;DHT22;64623;44.738;37.804;2023-04-30T02:44:20;21.31;85.54
75296;DHT22;64623;44.738;37.804;2023-04-30T02:45:23;21.32;85.59
75296;DHT22;64623;44.738;37.804;2023-04-30T02:46:26;21.32;85.55
75296;DHT22;64623;44.738;37.804;2023-04-30T02:47:29;21.32;85.56
75296;DHT22;64623;44.738;37.804;2023-04-30T02:48:32;21.31;85.53
75296;DHT22;64623;44.738;37.804;2023-04-30T02:49:35;21.33;85.61
75296;DHT22;64623;44.738;37.804;2023-04-30T02:50:38;21.31;85.51
75296;DHT22;64623;44.738;37.804;2023-04-30T02:51:41;21.32;85.53
75296;DHT22;64623;44.738;37.804;2023-04-30T02:52:47;21.32;85.55
75296;DHT22;64623;44.738;37.804;2023-04-30T02:53:50;21.32;85.51
75296;DHT22;64623;44.738;37.804;2023-04-30T02:54:53;21.32;85.53
75296;DHT22;64623;44.738;37.804;2023-04-30T02:55:56;21.31;85.51
75296;DHT22;64623;44.738;37.804;2023-04-30T02:57:00;21.31;85.52
75296;DHT22;64623;44.738;37.804;2023-04-30T02:58:04;21.31;85.59
75296;DHT22;64623;44.738;37.804;2023-04-30T02:59:07;21.31;85.53
75296;DHT22;64623;44.738;37.804;2023-04-30T03:00:10;21.32;85.61
75296;DHT22;64623;44.738;37.804;2023-04-30T03:01:14;21.32;85.51
75296;DHT22;64623;44.738;37.804;2023-04-30T03:02:17;21.31;85.55
75296;DHT22;64623;44.738;37.804;2023-04-30T03:03:23;21.32;85.52
75296;DHT22;64623;44.738;37.804;2023-04-30T03:04:26;21.32;85.57
75296;DHT22;64623;44.738;37.804;2023-04-30T03:05:29;21.32;85.54
75296;DHT22;64623;44.738;37.804;2023-04-30T03:06:32;21.30;85.54
75296;DHT22;64623;44.738;37.804;2023-04-30T03:07:35;21.31;85.58
75296;DHT22;64623;44.738;37.804;2023-04-30T03:08:38;21.32;85.61
75296;DHT22;64623;44.738;37.804;2023-04-30T03:09:42;21.31;85.59
75296;DHT22;64623;44.738;37.804;2023-04-30T03:10:45;21.31;85.58
75296;DHT22;64623;44.738;37.804;2023-04-30T03:11:48;21.32;85.54
75296;DHT22;64623;44.738;37.804;2023-04-30T03:12:51;21.32;85.48
75296;DHT22;64623;44.738;37.804;2023-04-30T03:13:55;21.31;85.48
75296;DHT22;64623;44.738;37.804;2023-04-30T03:14:58;21.31;85.47
75296;DHT22;64623;44.738;37.804;2023-04-30T03:16:03;21.32;85.43
75296;DHT22;64623;44.738;37.804;2023-04-30T03:17:08;21.33;85.48
75296;DHT22;64623;44.738;37.804;2023-04-30T03:18:11;21.32;85.49
75296;DHT22;64623;44.738;37.804;2023-04-30T03:19:14;21.32;85.43
75296;DHT22;64623;44.738;37.804;2023-04-30T03:20:18;21.32;85.43
75296;DHT22;64623;44.738;37.804;2023-04-30T03:21:21;21.33;85.55
75296;DHT22;64623;44.738;37.804;2023-04-30T03:22:24;21.32;85.63
75296;DHT22;64623;44.738;37.804;2023-04-30T03:23:28;21.32;85.52
75296;DHT22;64623;44.738;37.804;2023-04-30T03:24:31;21.32;85.33
75296;DHT22;64623;44.738;37.804;2023-04-30T03:25:34;21.33;85.19
75296;DHT22;64623;44.738;37.804;2023-04-30T03:26:37;21.33;85.09
75296;DHT22;64623;44.738;37.804;2023-04-30T03:27:40;21.33;85.13
75296;DHT22;64623;44.738;37.804;2023-04-30T03:28:43;21.32;85.03
75296;DHT22;64623;44.738;37.804;2023-04-30T03:29:46;21.32;84.97
75296;DHT22;64623;44.738;37.804;2023-04-30T03:30:50;21.32;84.97
75296;DHT22;64623;44.738;37.804;2023-04-30T03:31:53;21.31;85.08
75296;DHT22;64623;44.738;37.804;2023-04-30T03:32:56;21.32;85.04
75296;DHT22;64623;44.738;37.804;2023-04-30T03:33:59;21.32;85.64
75296;DHT22;64623;44.738;37.804;2023-04-30T03:35:02;21.31;85.43
75296;DHT22;64623;44.738;37.804;2023-04-30T03:36:05;21.31;85.43
75296;DHT22;64623;44.738;37.804;2023-04-30T03:37:08;21.32;85.32
75296;DHT22;64623;44.738;37.804;2023-04-30T03:38:11;21.32;85.32
75296;DHT22;64623;44.738;37.804;2023-04-30T03:39:14;21.32;85.22
75296;DHT22;64623;44.738;37.804;2023-04-30T03:40:18;21.34;85.06
75296;DHT22;64623;44.738;37.804;2023-04-30T03:41:21;21.34;85.09
75296;DHT22;64623;44.738;37.804;2023-04-30T03:42:26;21.33;85.02
75296;DHT22;64623;44.738;37.804;2023-04-30T03:43:29;21.35;85.06
75296;DHT22;64623;44.738;37.804;2023-04-30T03:44:32;21.36;84.98
75296;DHT22;64623;44.738;37.804;2023-04-30T03:45:35;21.35;85.02
75296;DHT22;64623;44.738;37.804;2023-04-30T03:46:38;21.36;85.05
75296;DHT22;64623;44.738;37.804;2023-04-30T03:47:42;21.36;85.02
75296;DHT22;64623;44.738;37.804;2023-04-30T03:48:45;21.38;85.02
75296;DHT22;64623;44.738;37.804;2023-04-30T03:49:49;21.38;85.06
75296;DHT22;64623;44.738;37.804;2023-04-30T03:50:57;21.37;85.11
75296;DHT22;64623;44.738;37.804;2023-04-30T03:52:00;21.39;85.08
75296;DHT22;64623;44.738;37.804;2023-04-30T03:53:03;21.39;85.06
75296;DHT22;64623;44.738;37.804;2023-04-30T03:54:06;21.40;85.03
75296;DHT22;64623;44.738;37.804;2023-04-30T03:55:09;21.39;84.97
75296;DHT22;64623;44.738;37.804;2023-04-30T03:56:13;21.40;84.97
75296;DHT22;64623;44.738;37.804;2023-04-30T03:57:17;21.40;84.97
75296;DHT22;64623;44.738;37.804;2023-04-30T03:58:20;21.40;84.98
75296;DHT22;64623;44.738;37.804;2023-04-30T03:59:24;21.43;85.01
75296;DHT22;64623;44.738;37.804;2023-04-30T04:00:27;21.42;84.93
75296;DHT22;64623;44.738;37.804;2023-04-30T04:01:31;21.43;84.91
75296;DHT22;64623;44.738;37.804;2023-04-30T04:02:34;21.43;85.00
75296;DHT22;64623;44.738;37.804;2023-04-30T04:03:37;21.44;85.00
75296;DHT22;64623;44.738;37.804;2023-04-30T04:04:41;21.44;85.06
75296;DHT22;64623;44.738;37.804;2023-04-30T04:05:44;21.44;85.03
75296;DHT22;64623;44.738;37.804;2023-04-30T04:06:47;21.46;85.03
75296;DHT22;64623;44.738;37.804;2023-04-30T04:07:52;21.47;85.06
75296;DHT22;64623;44.738;37.804;2023-04-30T04:08:55;21.46;84.97
75296;DHT22;64623;44.738;37.804;2023-04-30T04:09:58;21.46;84.96
75296;DHT22;64623;44.738;37.804;2023-04-30T04:11:02;21.46;85.03
75296;DHT22;64623;44.738;37.804;2023-04-30T04:12:05;21.46;85.06
75296;DHT22;64623;44.738;37.804;2023-04-30T04:13:08;21.47;84.98
75296;DHT22;64623;44.738;37.804;2023-04-30T04:14:11;21.48;84.93
75296;DHT22;64623;44.738;37.804;2023-04-30T04:15:14;21.47;84.96
75296;DHT22;64623;44.738;37.804;2023-04-30T04:16:18;21.48;84.92
75296;DHT22;64623;44.738;37.804;2023-04-30T04:17:21;21.49;84.86
75296;DHT22;64623;44.738;37.804;2023-04-30T04:18:24;21.48;84.88
75296;DHT22;64623;44.738;37.804;2023-04-30T04:19:28;21.49;84.80
75296;DHT22;64623;44.738;37.804;2023-04-30T04:20:32;21.49;84.83
75296;DHT22;64623;44.738;37.804;2023-04-30T04:21:35;21.48;84.81
75296;DHT22;64623;44.738;37.804;2023-04-30T04:22:43;21.50;84.74
75296;DHT22;64623;44.738;37.804;2023-04-30T04:23:46;21.49;84.75
75296;DHT22;64623;44.738;37.804;2023-04-30T04:24:50;21.50;84.75
75296;DHT22;64623;44.738;37.804;2023-04-30T04:25:55;21.50;84.86
75296;DHT22;64623;44.738;37.804;2023-04-30T04:26:59;21.49;84.79
75296;DHT22;64623;44.738;37.804;2023-04-30T04:28:04;21.50;84.80
75296;DHT22;64623;44.738;37.804;2023-04-30T04:29:09;21.49;84.82
75296;DHT22;64623;44.738;37.804;2023-04-30T04:30:14;21.52;84.74
75296;DHT22;64623;44.738;37.804;2023-04-30T04:31:19;21.50;84.74
75296;DHT22;64623;44.738;37.804;2023-04-30T04:32:22;21.51;84.72
75296;DHT22;64623;44.738;37.804;2023-04-30T04:33:26;21.51;84.71
75296;DHT22;64623;44.738;37.804;2023-04-30T04:34:29;21.53;84.75
75296;DHT22;64623;44.738;37.804;2023-04-30T04:35:32;21.51;84.72
75296;DHT22;64623;44.738;37.804;2023-04-30T04:36:35;21.52;84.73
75296;DHT22;64623;44.738;37.804;2023-04-30T04:37:39;21.52;84.74
75296;DHT22;64623;44.738;37.804;2023-04-30T04:38:42;21.52;84.74
75296;DHT22;64623;44.738;37.804;2023-04-30T04:39:46;21.53;84.86
75296;DHT22;64623;44.738;37.804;2023-04-30T04:40:53;21.54;84.65
75296;DHT22;64623;44.738;37.804;2023-04-30T04:41:57;21.53;84.68
75296;DHT22;64623;44.738;37.804;2023-04-30T04:43:00;21.53;84.76
75296;DHT22;64623;44.738;37.804;2023-04-30T04:44:11;21.53;84.71
75296;DHT22;64623;44.738;37.804;2023-04-30T04:45:15;21.54;84.68
75296;DHT22;64623;44.738;37.804;2023-04-30T04:46:18;21.53;84.67
75296;DHT22;64623;44.738;37.804;2023-04-30T04:47:22;21.53;84.86
75296;DHT22;64623;44.738;37.804;2023-04-30T04:48:26;21.54;85.40
75296;DHT22;64623;44.738;37.804;2023-04-30T04:49:29;21.55;84.98
75296;DHT22;64623;44.738;37.804;2023-04-30T04:50:32;21.57;85.03
75296;DHT22;64623;44.738;37.804;2023-04-30T04:51:35;21.58;84.94
75296;DHT22;64623;44.738;37.804;2023-04-30T04:52:38;21.57;84.87
75296;DHT22;64623;44.738;37.804;2023-04-30T04:53:41;21.58;85.04
75296;DHT22;64623;44.738;37.804;2023-04-30T04:54:45;21.59;85.08
75296;DHT22;64623;44.738;37.804;2023-04-30T04:55:48;21.59;84.91
75296;DHT22;64623;44.738;37.804;2023-04-30T04:56:51;21.61;85.05
75296;DHT22;64623;44.738;37.804;2023-04-30T04:57:54;21.60;85.07
75296;DHT22;64623;44.738;37.804;2023-04-30T04:58:57;21.60;85.09
75296;DHT22;64623;44.738;37.804;2023-04-30T05:00:00;21.62;85.10
75296;DHT22;64623;44.738;37.804;2023-04-30T05:01:04;21.61;85.26
75296;DHT22;64623;44.738;37.804;2023-04-30T05:02:07;21.62;85.48
75296;DHT22;64623;44.738;37.804;2023-04-30T05:03:10;21.63;85.40
75296;DHT22;64623;44.738;37.804;2023-04-30T05:04:13;21.63;85.43
75296;DHT22;64623;44.738;37.804;2023-04-30T05:05:19;21.64;85.41
75296;DHT22;64623;44.738;37.804;2023-04-30T05:06:21;21.63;85.38
75296;DHT22;64623;44.738;37.804;2023-04-30T05:07:25;21.64;85.50
75296;DHT22;64623;44.738;37.804;2023-04-30T05:08:28;21.65;85.55
75296;DHT22;64623;44.738;37.804;2023-04-30T05:09:31;21.65;85.50
75296;DHT22;64623;44.738;37.804;2023-04-30T05:10:34;21.65;85.79
75296;DHT22;64623;44.738;37.804;2023-04-30T05:11:37;21.65;85.66
75296;DHT22;64623;44.738;37.804;2023-04-30T05:12:40;21.67;85.80
75296;DHT22;64623;44.738;37.804;2023-04-30T05:13:43;21.65;85.88
75296;DHT22;64623;44.738;37.804;2023-04-30T05:14:46;21.66;85.77
75296;DHT22;64623;44.738;37.804;2023-04-30T05:15:52;21.67;85.86
75296;DHT22;64623;44.738;37.804;2023-04-30T05:16:55;21.67;86.02
75296;DHT22;64623;44.738;37.804;2023-04-30T05:17:58;21.68;86.06
75296;DHT22;64623;44.738;37.804;2023-04-30T05:19:01;21.66;85.88
75296;DHT22;64623;44.738;37.804;2023-04-30T05:20:05;21.67;85.91
75296;DHT22;64623;44.738;37.804;2023-04-30T05:21:08;21.68;85.91
75296;DHT22;64623;44.738;37.804;2023-04-30T05:22:12;21.68;86.22
75296;DHT22;64623;44.738;37.804;2023-04-30T05:23:15;21.68;85.86
75296;DHT22;64623;44.738;37.804;2023-04-30T05:24:18;21.69;85.86
75296;DHT22;64623;44.738;37.804;2023-04-30T05:25:21;21.69;85.89
75296;DHT22;64623;44.738;37.804;2023-04-30T05:26:24;21.70;85.88
75296;DHT22;64623;44.738;37.804;2023-04-30T05:27:28;21.70;86.05
75296;DHT22;64623;44.738;37.804;2023-04-30T05:28:31;21.70;85.92
75296;DHT22;64623;44.738;37.804;2023-04-30T05:29:34;21.70;86.00
75296;DHT22;64623;44.738;37.804;2023-04-30T05:30:37;21.70;86.52
75296;DHT22;64623;44.738;37.804;2023-04-30T05:31:41;21.70;86.29
75296;DHT22;64623;44.738;37.804;2023-04-30T05:32:44;21.69;85.93
75296;DHT22;64623;44.738;37.804;2023-04-30T05:33:52;21.70;85.87
75296;DHT22;64623;44.738;37.804;2023-04-30T05:34:55;21.70;85.73
75296;DHT22;64623;44.738;37.804;2023-04-30T05:35:58;21.70;85.67
75296;DHT22;64623;44.738;37.804;2023-04-30T05:37:01;21.70;85.68
75296;DHT22;64623;44.738;37.804;2023-04-30T05:38:05;21.69;85.71
75296;DHT22;64623;44.738;37.804;2023-04-30T05:39:08;21.69;85.70
75296;DHT22;64623;44.738;37.804;2023-04-30T05:40:11;21.69;85.71
75296;DHT22;64623;44.738;37.804;2023-04-30T05:41:15;21.68;85.72
75296;DHT22;64623;44.738;37.804;2023-04-30T05:42:18;21.69;85.87
75296;DHT22;64623;44.738;37.804;2023-04-30T05:43:21;21.68;85.90
75296;DHT22;64623;44.738;37.804;2023-04-30T05:44:24;21.68;85.84
75296;DHT22;64623;44.738;37.804;2023-04-30T05:45:27;21.68;85.77
75296;DHT22;64623;44.738;37.804;2023-04-30T05:46:30;21.68;85.77
75296;DHT22;64623;44.738;37.804;2023-04-30T05:47:33;21.68;85.66
75296;DHT22;64623;44.738;37.804;2023-04-30T05:48:36;21.67;85.62
75296;DHT22;64623;44.738;37.804;2023-04-30T05:49:40;21.68;85.64
75296;DHT22;64623;44.738;37.804;2023-04-30T05:50:43;21.66;85.61
75296;DHT22;64623;44.738;37.804;2023-04-30T05:51:46;21.68;85.58
75296;DHT22;64623;44.738;37.804;2023-04-30T05:52:49;21.67;85.62
75296;DHT22;64623;44.738;37.804;2023-04-30T05:53:52;21.68;85.56
75296;DHT22;64623;44.738;37.804;2023-04-30T05:54:56;21.67;85.63
75296;DHT22;64623;44.738;37.804;2023-04-30T05:55:59;21.67;85.57
75296;DHT22;64623;44.738;37.804;2023-04-30T05:57:02;21.67;85.67
75296;DHT22;64623;44.738;37.804;2023-04-30T05:58:05;21.68;85.71
75296;DHT22;64623;44.738;37.804;2023-04-30T05:59:08;21.66;85.69
75296;DHT22;64623;44.738;37.804;2023-04-30T06:00:12;21.67;85.77
75296;DHT22;64623;44.738;37.804;2023-04-30T06:01:15;21.68;85.72
75296;DHT22;64623;44.738;37.804;2023-04-30T06:02:18;21.67;85.71
75296;DHT22;64623;44.738;37.804;2023-04-30T06:03:21;21.67;85.79
75296;DHT22;64623;44.738;37.804;2023-04-30T06:04:25;21.67;85.78
75296;DHT22;64623;44.738;37.804;2023-04-30T06:05:28;21.67;85.85
75296;DHT22;64623;44.738;37.804;2023-04-30T06:06:31;21.67;85.84
75296;DHT22;64623;44.738;37.804;2023-04-30T06:07:34;21.67;85.79
75296;DHT22;64623;44.738;37.804;2023-04-30T06:08:37;21.67;85.86
75296;DHT22;64623;44.738;37.804;2023-04-30T06:09:43;21.68;85.82
75296;DHT22;64623;44.738;37.804;2023-04-30T06:10:46;21.67;85.76
75296;DHT22;64623;44.738;37.804;2023-04-30T06:11:49;21.66;85.71
75296;DHT22;64623;44.738;37.804;2023-04-30T06:12:53;21.67;85.81
75296;DHT22;64623;44.738;37.804;2023-04-30T06:13:57;21.67;85.88
75296;DHT22;64623;44.738;37.804;2023-04-30T06:15:00;21.67;85.96
75296;DHT22;64623;44.738;37.804;2023-04-30T06:16:05;21.67;86.06
75296;DHT22;64623;44.738;37.804;2023-04-30T06:17:08;21.66;85.99
75296;DHT22;64623;44.738;37.804;2023-04-30T06:18:12;21.66;86.08
75296;DHT22;64623;44.738;37.804;2023-04-30T06:19:15;21.66;86.27
75296;DHT22;64623;44.738;37.804;2023-04-30T06:20:18;21.66;86.09
75296;DHT22;64623;44.738;37.804;2023-04-30T06:21:21;21.67;86.06
75296;DHT22;64623;44.738;37.804;2023-04-30T06:22:28;21.67;85.94
75296;DHT22;64623;44.738;37.804;2023-04-30T06:23:31;21.66;85.92
75296;DHT22;64623;44.738;37.804;2023-04-30T06:24:37;21.68;86.02
75296;DHT22;64623;44.738;37.804;2023-04-30T06:25:40;21.66;86.06
75296;DHT22;64623;44.738;37.804;2023-04-30T06:26:43;21.66;85.97
75296;DHT22;64623;44.738;37.804;2023-04-30T06:27:46;21.67;85.96
75296;DHT22;64623;44.738;37.804;2023-04-30T06:28:49;21.66;86.03
75296;DHT22;64623;44.738;37.804;2023-04-30T06:29:53;21.64;86.78
75296;DHT22;64623;44.738;37.804;2023-04-30T06:30:56;21.65;86.99
75296;DHT22;64623;44.738;37.804;2023-04-30T06:32:03;21.66;86.80
75296;DHT22;64623;44.738;37.804;2023-04-30T06:33:08;21.67;86.51
75296;DHT22;64623;44.738;37.804;2023-04-30T06:34:11;21.66;86.43
75296;DHT22;64623;44.738;37.804;2023-04-30T06:35:14;21.66;86.21
75296;DHT22;64623;44.738;37.804;2023-04-30T06:36:17;21.67;86.22
75296;DHT22;64623;44.738;37.804;2023-04-30T06:37:21;21.67;86.15
75296;DHT22;64623;44.738;37.804;2023-04-30T06:38:24;21.67;86.43
75296;DHT22;64623;44.738;37.804;2023-04-30T06:39:27;21.67;86.22
75296;DHT22;64623;44.738;37.804;2023-04-30T06:40:30;21.67;86.30
75296;DHT22;64623;44.738;37.804;2023-04-30T06:41:33;21.68;86.26
75296;DHT22;64623;44.738;37.804;2023-04-30T06:42:43;21.68;86.19
75296;DHT22;64623;44.738;37.804;2023-04-30T06:43:47;21.69;86.09
75296;DHT22;64623;44.738;37.804;2023-04-30T06:44:49;21.69;86.16
75296;DHT22;64623;44.738;37.804;2023-04-30T06:45:52;21.70;86.05
75296;DHT22;64623;44.738;37.804;2023-04-30T06:46:55;21.70;86.12
75296;DHT22;64623;44.738;37.804;2023-04-30T06:48:00;21.70;86.12
75296;DHT22;64623;44.738;37.804;2023-04-30T06:49:03;21.72;86.13
75296;DHT22;64623;44.738;37.804;2023-04-30T06:50:06;21.72;86.33
75296;DHT22;64623;44.738;37.804;2023-04-30T06:51:10;21.74;86.83
75296;DHT22;64623;44.738;37.804;2023-04-30T06:52:13;21.76;86.93
75296;DHT22;64623;44.738;37.804;2023-04-30T06:53:16;21.78;87.12
75296;DHT22;64623;44.738;37.804;2023-04-30T06:54:19;21.79;87.02
75296;DHT22;64623;44.738;37.804;2023-04-30T06:55:24;21.81;88.83